Time;durP1;ratioP1;P1;durP2;ratioP2;P2;SDS_P1;SDS_P2;PMS_P1;PMS_P2;Temp;Humidity;BMP_temperature;BMP_pressure;BME280_temperature;BME280_humidity;BME280_pressure;Samples;Min_cycle;Max_cycle;Signal;HPM_P1;HPM_P2
2024/03/22 00:00:35;;;;;;;2.67;2.27;;;23.20;63.70;;;;;;5037397;28;20199;-92
2024/03/22 00:03:01;;;;;;;2.20;2.00;;;23.10;64.40;;;;;;5037550;28;21032;-91
2024/03/22 00:05:29;;;;;;;2.40;2.07;;;23.20;63.70;;;;;;5038393;28;20201;-92
2024/03/22 00:07:55;;;;;;;2.50;2.10;;;23.10;63.60;;;;;;5037061;28;20454;-94
2024/03/22 00:10:21;;;;;;;2.47;2.17;;;23.20;63.70;;;;;;5037378;28;20505;-94
2024/03/22 00:12:59;;;;;;;3.00;2.30;;;23.20;63.70;;;;;;5037825;28;20446;-92
2024/03/22 00:32:09;;;;;;;3.03;2.17;;;23.10;63.60;;;;;;4918664;29;20495;-92
2024/03/22 00:34:35;;;;;;;3.27;2.33;;;23.10;63.70;;;;;;4928070;29;20448;-91
2024/03/22 00:46:40;;;;;;;2.20;1.93;;;23.20;63.70;;;;;;5055352;28;20543;-91
2024/03/22 00:52:43;;;;;;;2.40;2.20;;;23.10;63.50;;;;;;4882049;29;20455;-92
2024/03/22 00:55:09;;;;;;;2.30;2.10;;;23.20;63.60;;;;;;4920229;28;20556;-92
2024/03/22 01:18:08;;;;;;;2.57;2.10;;;23.10;63.60;;;;;;5048408;28;20460;-92
2024/03/22 01:23:51;;;;;;;2.30;2.10;;;23.00;63.50;;;;;;5024844;28;20432;-92
2024/03/22 01:26:38;;;;;;;2.10;1.80;;;23.10;63.60;;;;;;5076056;28;20531;-93
2024/03/22 01:37:52;;;;;;;2.00;1.73;;;23.00;63.60;;;;;;4983629;28;20598;-91
2024/03/22 01:57:42;;;;;;;3.00;2.10;;;23.00;63.60;;;;;;4915641;29;20467;-92
2024/03/22 02:00:09;;;;;;;2.23;2.03;;;23.00;63.60;;;;;;4914452;29;20522;-92
2024/03/22 02:08:49;;;;;;;2.23;2.00;;;23.00;63.70;;;;;;5039689;28;20541;-92
2024/03/22 02:15:01;;;;;;;;;;;;;;;;;;;;;
2024/03/22 02:17:36;;;;;;;2.30;1.97;;;23.00;63.60;;;;;;4955608;29;20440;-91
2024/03/22 02:23:08;;;;;;;2.20;1.93;;;23.00;63.60;;;;;;4983253;28;20444;-91
2024/03/22 02:25:35;;;;;;;2.10;1.80;;;23.00;63.70;;;;;;4993565;28;20994;-92
2024/03/22 02:28:02;;;;;;;2.30;2.10;;;23.00;63.70;;;;;;5025946;28;20540;-92
2024/03/22 02:30:28;;;;;;;2.00;1.73;;;23.10;63.80;;;;;;5054605;28;20504;-91
2024/03/22 02:32:55;;;;;;;2.20;1.90;;;23.00;63.70;;;;;;5054985;28;20854;-93
2024/03/22 02:35:21;;;;;;;2.50;2.00;;;23.10;63.80;;;;;;5054967;28;20198;-91
2024/03/22 02:37:48;;;;;;;2.37;2.00;;;23.00;63.60;;;;;;5055006;28;20540;-92
2024/03/22 02:40:13;;;;;;;2.53;1.77;;;23.00;63.70;;;;;;5053479;28;20194;-91
2024/03/22 02:42:42;;;;;;;2.60;1.80;;;23.00;63.70;;;;;;5054849;28;20525;-92
2024/03/22 02:45:09;;;;;;;2.10;1.90;;;23.10;63.80;;;;;;5055298;28;20799;-92
2024/03/22 02:47:35;;;;;;;2.27;1.87;;;23.00;63.70;;;;;;5054602;28;20471;-92
2024/03/22 02:50:01;;;;;;;2.20;1.97;;;23.00;63.70;;;;;;5055388;28;20437;-93
2024/03/22 02:52:28;;;;;;;2.40;2.03;;;23.00;63.70;;;;;;5054509;28;20571;-91
2024/03/22 02:54:54;;;;;;;2.37;2.03;;;23.00;63.70;;;;;;5054587;28;20694;-92
2024/03/22 02:57:21;;;;;;;2.80;2.27;;;22.90;63.60;;;;;;5055126;28;20449;-94
2024/03/22 02:59:48;;;;;;;2.00;1.70;;;23.00;63.70;;;;;;5055515;28;20448;-92
2024/03/22 03:02:15;;;;;;;2.20;1.97;;;23.00;63.80;;;;;;5054519;28;20453;-92
2024/03/22 03:04:41;;;;;;;2.93;2.00;;;22.90;63.60;;;;;;5055113;28;20453;-91
2024/03/22 03:07:07;;;;;;;2.23;1.73;;;23.00;63.70;;;;;;5054339;28;20967;-92
2024/03/22 03:09:33;;;;;;;2.57;1.93;;;22.90;63.60;;;;;;5054891;28;20202;-92
2024/03/22 03:12:00;;;;;;;1.97;1.70;;;22.90;63.60;;;;;;5054470;28;20485;-92
2024/03/22 03:14:26;;;;;;;2.80;1.90;;;22.90;63.60;;;;;;5054414;28;20226;-95
2024/03/22 03:16:55;;;;;;;2.40;2.20;;;22.90;63.60;;;;;;5053940;28;20790;-91
2024/03/22 03:19:21;;;;;;;2.50;1.90;;;22.90;63.60;;;;;;5067559;28;20218;-91
2024/03/22 03:21:48;;;;;;;2.10;1.50;;;22.90;63.60;;;;;;5074202;28;20506;-91
2024/03/22 03:24:14;;;;;;;2.60;2.00;;;22.90;63.60;;;;;;5074016;28;20196;-91
2024/03/22 03:26:41;;;;;;;2.00;1.60;;;22.90;63.70;;;;;;5074221;28;20543;-92
2024/03/22 03:29:07;;;;;;;2.60;2.13;;;23.00;63.80;;;;;;5075142;28;20557;-91
2024/03/22 03:31:33;;;;;;;3.07;1.73;;;22.90;63.70;;;;;;5074366;28;20480;-93
2024/03/22 03:34:01;;;;;;;2.10;1.70;;;22.90;63.60;;;;;;5074494;28;20536;-91
2024/03/22 03:36:27;;;;;;;1.70;1.23;;;22.90;63.70;;;;;;5074610;28;20981;-92
2024/03/22 03:38:53;;;;;;;2.33;1.70;;;22.90;63.70;;;;;;5074032;28;20539;-92
2024/03/22 03:41:20;;;;;;;2.40;2.10;;;23.00;63.80;;;;;;5073926;28;20471;-91
2024/03/22 03:43:46;;;;;;;2.20;1.93;;;22.90;63.60;;;;;;5076733;28;20284;-92
2024/03/22 03:53:01;;;;;;;1.60;1.30;;;22.90;63.70;;;;;;5078216;28;20401;-92
2024/03/22 03:55:27;;;;;;;2.60;1.90;;;22.90;63.80;;;;;;5077950;28;20902;-93
2024/03/22 03:57:53;;;;;;;4.23;2.10;;;22.90;63.70;;;;;;5077409;28;20556;-93
2024/03/22 04:00:21;;;;;;;2.17;1.63;;;22.90;63.70;;;;;;5077186;28;20735;-92
2024/03/22 04:02:49;;;;;;;2.13;1.93;;;22.90;63.70;;;;;;5078613;28;20373;-91
2024/03/22 04:05:16;;;;;;;2.20;1.90;;;22.90;63.70;;;;;;5077851;28;20862;-91
2024/03/22 04:07:42;;;;;;;2.47;1.83;;;22.90;63.70;;;;;;5077564;28;20445;-90
2024/03/22 04:10:11;;;;;;;2.20;1.80;;;23.00;63.80;;;;;;5077766;28;20955;-93
2024/03/22 04:12:37;;;;;;;2.00;1.70;;;23.00;63.80;;;;;;5078038;28;20476;-92
2024/03/22 04:15:04;;;;;;;3.03;2.20;;;22.90;63.60;;;;;;5077368;28;20968;-91
2024/03/22 04:17:30;;;;;;;2.20;1.97;;;22.90;63.60;;;;;;5077941;28;20190;-93
2024/03/22 04:19:57;;;;;;;2.00;1.80;;;23.00;63.80;;;;;;5076821;28;21058;-92
2024/03/22 04:22:23;;;;;;;2.57;1.63;;;22.90;63.60;;;;;;5077023;28;20447;-91
2024/03/22 04:24:50;;;;;;;2.10;1.77;;;22.90;63.70;;;;;;5077115;28;20555;-92
2024/03/22 04:27:17;;;;;;;2.10;1.87;;;22.90;63.70;;;;;;5076891;28;20463;-93
2024/03/22 04:29:48;;;;;;;2.10;1.57;;;22.90;63.60;;;;;;5076824;28;20865;-91
2024/03/22 04:32:13;;;;;;;1.90;1.70;;;23.00;63.80;;;;;;5077041;28;20480;-93
2024/03/22 04:34:43;;;;;;;2.10;1.80;;;22.90;63.70;;;;;;5077093;28;20471;-94
2024/03/22 04:37:11;;;;;;;2.13;1.90;;;22.90;63.70;;;;;;5077399;28;20202;-93
2024/03/22 04:39:38;;;;;;;1.90;1.60;;;22.90;63.70;;;;;;5059318;28;20445;-92
2024/03/22 04:42:05;;;;;;;3.03;1.80;;;22.90;63.70;;;;;;5077025;28;20452;-95
2024/03/22 04:44:33;;;;;;;2.60;2.20;;;22.90;63.70;;;;;;5076395;28;20543;-93
2024/03/22 04:46:59;;;;;;;2.10;1.90;;;22.90;63.70;;;;;;5076535;28;20834;-93
2024/03/22 04:49:26;;;;;;;1.80;1.37;;;22.90;63.70;;;;;;5085765;28;20459;-92
2024/03/22 04:51:53;;;;;;;1.70;1.37;;;22.90;63.70;;;;;;5100210;28;20214;-91
2024/03/22 04:54:19;;;;;;;1.90;1.60;;;22.90;63.70;;;;;;5096557;28;20460;-93
2024/03/22 04:56:45;;;;;;;2.20;1.80;;;22.90;63.70;;;;;;5076503;28;20485;-93
2024/03/22 04:59:11;;;;;;;2.30;1.37;;;22.90;63.70;;;;;;5076959;28;20194;-92
2024/03/22 05:01:40;;;;;;;2.27;1.70;;;22.90;63.70;;;;;;5076228;28;21006;-91
2024/03/22 05:04:05;;;;;;;1.93;1.60;;;22.90;63.70;;;;;;5075864;28;20468;-91
2024/03/22 05:06:33;;;;;;;1.93;1.57;;;22.80;63.60;;;;;;5077241;28;20448;-91
2024/03/22 05:08:58;;;;;;;1.93;1.57;;;22.80;63.60;;;;;;5077029;28;20281;-91
2024/03/22 05:11:26;;;;;;;2.80;1.80;;;22.80;63.60;;;;;;5075986;28;20579;-91
2024/03/22 05:13:51;;;;;;;2.50;1.90;;;22.80;63.60;;;;;;5076529;28;20198;-92
2024/03/22 05:16:18;;;;;;;1.90;1.53;;;22.90;63.70;;;;;;5076947;28;20985;-92
2024/03/22 05:18:45;;;;;;;2.10;1.63;;;22.80;63.60;;;;;;5076121;28;20230;-92
2024/03/22 05:21:12;;;;;;;2.10;1.70;;;22.80;63.60;;;;;;5076103;28;20441;-92
2024/03/22 05:23:38;;;;;;;2.10;1.80;;;22.90;63.70;;;;;;5077357;28;20448;-96
2024/03/22 05:29:27;;;;;;;1.90;1.47;;;22.80;63.60;;;;;;5076019;28;20428;-93
2024/03/22 05:31:54;;;;;;;2.23;1.83;;;22.80;63.70;;;;;;5076307;28;20572;-92
2024/03/22 05:34:21;;;;;;;1.90;1.60;;;22.80;63.80;;;;;;5075483;28;20536;-92
2024/03/22 05:36:49;;;;;;;2.10;1.80;;;22.80;63.90;;;;;;5076063;28;20937;-92
2024/03/22 05:39:15;;;;;;;2.30;1.70;;;22.80;63.80;;;;;;5076354;28;20532;-92
2024/03/22 05:41:43;;;;;;;33.53;29.63;;;22.80;63.80;;;;;;5077061;28;20484;-94
2024/03/22 05:44:09;;;;;;;28.30;25.50;;;22.80;67.50;;;;;;5076358;28;20487;-92
2024/03/22 05:46:36;;;;;;;39.90;35.90;;;22.70;69.50;;;;;;5076292;28;20524;-92
2024/03/22 05:49:02;;;;;;;27.00;23.63;;;22.60;70.80;;;;;;5076337;28;20197;-95
2024/03/22 05:51:31;;;;;;;8.90;8.00;;;22.50;70.40;;;;;;5075288;28;20525;-92
2024/03/22 05:53:56;;;;;;;5.83;5.17;;;22.60;68.00;;;;;;5076149;28;20448;-93
2024/03/22 05:56:24;;;;;;;4.60;3.53;;;22.60;67.10;;;;;;5075659;28;20829;-93
2024/03/22 05:58:50;;;;;;;3.20;2.83;;;22.60;66.60;;;;;;5075937;28;20438;-92
2024/03/22 06:01:16;;;;;;;3.27;2.83;;;22.70;66.20;;;;;;5076612;28;20468;-92
2024/03/22 06:03:42;;;;;;;4.33;3.33;;;22.70;66.10;;;;;;5076357;28;20204;-92
2024/03/22 06:06:09;;;;;;;4.40;4.00;;;22.70;66.00;;;;;;5058296;28;20527;-95
2024/03/22 06:08:39;;;;;;;3.10;2.80;;;22.70;65.80;;;;;;5076102;28;20440;-93
2024/03/22 06:11:08;;;;;;;3.57;3.03;;;22.70;65.60;;;;;;5075494;28;20460;-93
2024/03/22 06:13:34;;;;;;;4.50;3.13;;;22.80;65.70;;;;;;5075292;28;20440;-93
2024/03/22 06:16:01;;;;;;;3.87;3.20;;;22.80;65.50;;;;;;5075220;28;20542;-93
2024/03/22 06:18:27;;;;;;;5.27;2.87;;;22.90;65.50;;;;;;5075641;28;20503;-93
2024/03/22 06:20:54;;;;;;;3.23;2.93;;;22.80;65.40;;;;;;5075399;28;20480;-92
2024/03/22 06:23:20;;;;;;;8.97;2.93;;;22.80;65.40;;;;;;5075375;28;20208;-92
2024/03/22 06:26:12;;;;;;;3.07;2.77;;;22.80;65.30;;;;;;5076139;28;20885;-92
2024/03/22 06:28:38;;;;;;;4.37;2.93;;;22.80;65.40;;;;;;5076132;28;20544;-93
2024/03/22 06:31:05;;;;;;;3.30;3.00;;;22.80;65.30;;;;;;5075613;28;20539;-92
2024/03/22 06:33:31;;;;;;;7.40;3.33;;;22.80;65.20;;;;;;5075189;28;20193;-92
2024/03/22 06:35:58;;;;;;;5.97;3.03;;;22.80;65.20;;;;;;5076118;28;20445;-92
2024/03/22 06:38:25;;;;;;;4.33;2.63;;;22.80;65.00;;;;;;5075622;28;20440;-92
2024/03/22 06:40:51;;;;;;;3.30;2.80;;;22.80;65.20;;;;;;5075326;28;20470;-95
2024/03/22 06:43:20;;;;;;;3.47;2.97;;;22.80;65.20;;;;;;5075181;28;20448;-93
2024/03/22 06:45:45;;;;;;;3.37;2.90;;;22.80;65.20;;;;;;5075259;28;20464;-95
2024/03/22 06:48:14;;;;;;;2.53;2.27;;;22.80;65.10;;;;;;5075501;28;20452;-84
2024/03/22 06:50:41;;;;;;;3.27;2.80;;;22.80;65.10;;;;;;5074854;28;20685;-93
2024/03/22 06:53:09;;;;;;;3.50;3.20;;;22.90;65.10;;;;;;5074523;28;20484;-91
2024/03/22 06:55:35;;;;;;;5.40;3.10;;;22.90;65.20;;;;;;5076002;28;20552;-93
2024/03/22 06:58:02;;;;;;;4.33;2.63;;;22.90;65.20;;;;;;5074929;28;20882;-92
2024/03/22 07:00:30;;;;;;;2.67;2.40;;;22.80;65.20;;;;;;5074919;28;20212;-93
2024/03/22 07:02:57;;;;;;;4.77;2.30;;;22.80;65.20;;;;;;5074725;28;20444;-92
2024/03/22 07:05:23;;;;;;;3.17;2.70;;;22.80;65.20;;;;;;5075209;28;20436;-92
2024/03/22 07:07:50;;;;;;;4.33;3.03;;;22.90;65.30;;;;;;5074778;28;20447;-92
2024/03/22 07:10:16;;;;;;;4.23;2.63;;;22.90;65.40;;;;;;5074780;28;20633;-93
2024/03/22 07:12:43;;;;;;;3.50;2.93;;;22.80;65.20;;;;;;5075129;28;20533;-94
2024/03/22 07:15:09;;;;;;;3.50;2.67;;;22.80;65.30;;;;;;5074429;28;20433;-93
2024/03/22 07:17:37;;;;;;;3.33;2.63;;;22.80;65.30;;;;;;5076038;28;20467;-93
2024/03/22 07:20:04;;;;;;;3.13;2.30;;;22.80;65.20;;;;;;5078423;28;20567;-93
2024/03/22 07:22:31;;;;;;;2.80;2.50;;;22.80;65.10;;;;;;5078939;28;20444;-93
2024/03/22 07:24:57;;;;;;;3.37;2.67;;;22.80;65.00;;;;;;5078822;28;20468;-93
2024/03/22 07:27:29;;;;;;;3.73;2.77;;;22.90;65.20;;;;;;5078918;28;20444;-93
2024/03/22 07:29:55;;;;;;;2.73;2.43;;;22.80;65.00;;;;;;5079227;28;20202;-93
2024/03/22 07:32:22;;;;;;;2.57;2.27;;;22.90;65.10;;;;;;5078129;28;20491;-93
2024/03/22 07:34:49;;;;;;;3.33;2.37;;;22.90;65.10;;;;;;5079064;28;20630;-92
2024/03/22 07:37:16;;;;;;;4.40;2.50;;;22.80;64.90;;;;;;5079381;28;20447;-92
2024/03/22 07:39:42;;;;;;;2.90;2.17;;;22.90;65.10;;;;;;5078494;28;20446;-91
2024/03/22 07:42:09;;;;;;;2.83;2.37;;;22.90;65.10;;;;;;5077975;28;20527;-92
2024/03/22 07:44:34;;;;;;;2.80;2.40;;;22.90;65.00;;;;;;5077950;28;20286;-92
2024/03/22 07:47:01;;;;;;;2.80;2.50;;;22.90;65.10;;;;;;5078829;28;20479;-92
2024/03/22 07:49:27;;;;;;;2.33;2.10;;;22.90;65.10;;;;;;5078485;28;20277;-92
2024/03/22 07:51:55;;;;;;;2.73;1.97;;;22.90;65.10;;;;;;5077940;28;20567;-92
2024/03/22 07:54:21;;;;;;;3.67;1.87;;;22.90;65.10;;;;;;5078134;28;20285;-92
2024/03/22 07:56:51;;;;;;;3.03;2.30;;;22.90;65.00;;;;;;5077781;28;20539;-92
2024/03/22 07:59:17;;;;;;;3.47;2.53;;;22.90;65.00;;;;;;5077776;28;20281;-93
2024/03/22 08:01:43;;;;;;;3.57;2.30;;;22.90;65.00;;;;;;5078136;28;20529;-92
2024/03/22 08:04:09;;;;;;;2.93;2.43;;;22.90;64.90;;;;;;5060096;28;20942;-93
2024/03/22 08:06:36;;;;;;;2.67;2.20;;;22.90;65.00;;;;;;5098100;28;20440;-92
2024/03/22 08:09:03;;;;;;;3.40;2.23;;;22.90;64.90;;;;;;5101151;28;20186;-92
2024/03/22 08:11:30;;;;;;;2.77;2.10;;;22.90;64.90;;;;;;5101184;28;20464;-92
2024/03/22 08:14:01;;;;;;;4.53;2.30;;;22.90;64.90;;;;;;5096514;28;20565;-93
2024/03/22 08:16:28;;;;;;;3.30;2.13;;;23.00;65.00;;;;;;5079510;28;20474;-92
2024/03/22 08:18:54;;;;;;;3.03;2.30;;;22.90;65.00;;;;;;5077828;28;20559;-92
2024/03/22 08:21:21;;;;;;;6.93;2.20;;;23.00;65.10;;;;;;5077506;28;20480;-91
2024/03/22 08:23:47;;;;;;;3.20;2.03;;;22.90;65.10;;;;;;5077852;28;20560;-92
2024/03/22 08:26:15;;;;;;;2.73;1.90;;;22.90;65.90;;;;;;5076878;28;20551;-92
2024/03/22 08:28:41;;;;;;;5.80;2.10;;;23.00;65.20;;;;;;5077111;28;20281;-92
2024/03/22 08:31:08;;;;;;;2.90;2.10;;;22.90;65.20;;;;;;5077513;28;20543;-92
2024/03/22 08:33:34;;;;;;;2.60;2.00;;;22.90;65.20;;;;;;5077200;28;20222;-91
2024/03/22 08:36:01;;;;;;;3.80;2.00;;;23.00;65.30;;;;;;5077041;28;20535;-92
2024/03/22 08:38:27;;;;;;;3.90;2.47;;;22.90;65.10;;;;;;5077018;28;20198;-92
2024/03/22 08:40:54;;;;;;;2.87;2.40;;;22.90;65.10;;;;;;5076977;28;20448;-92
2024/03/22 08:43:23;;;;;;;3.67;2.10;;;23.00;65.20;;;;;;5077418;28;20440;-92
2024/03/22 08:45:49;;;;;;;2.33;2.00;;;22.90;65.10;;;;;;5077537;28;20448;-92
2024/03/22 08:48:15;;;;;;;6.10;2.23;;;22.90;65.20;;;;;;5076758;28;20444;-92
2024/03/22 08:50:43;;;;;;;5.53;1.70;;;22.90;65.10;;;;;;5076821;28;20969;-92
2024/03/22 08:53:09;;;;;;;3.50;2.27;;;22.90;65.10;;;;;;5076786;28;20295;-92
2024/03/22 08:55:36;;;;;;;3.07;1.93;;;22.90;66.00;;;;;;5076647;28;20563;-92
2024/03/22 08:58:02;;;;;;;3.97;2.40;;;22.90;65.10;;;;;;5077253;28;20198;-91
2024/03/22 09:00:30;;;;;;;3.53;2.10;;;22.90;65.10;;;;;;5076843;28;20817;-93
2024/03/22 09:02:56;;;;;;;3.10;2.10;;;22.90;65.10;;;;;;5076458;28;20525;-92
2024/03/22 09:05:23;;;;;;;3.40;2.30;;;22.90;65.10;;;;;;5076515;28;20457;-91
2024/03/22 09:07:52;;;;;;;4.23;1.87;;;22.90;65.10;;;;;;5076664;28;20281;-92
2024/03/22 09:10:19;;;;;;;2.87;2.10;;;22.90;65.20;;;;;;5077232;28;20476;-92
2024/03/22 09:12:45;;;;;;;2.57;2.00;;;22.90;65.20;;;;;;5076561;28;20571;-91
2024/03/22 09:15:12;;;;;;;4.23;1.90;;;22.90;65.30;;;;;;5076931;28;20539;-91
2024/03/22 09:17:39;;;;;;;3.83;1.93;;;22.90;65.30;;;;;;5076826;28;20198;-92
2024/03/22 09:20:08;;;;;;;3.60;2.13;;;22.90;65.30;;;;;;5076013;28;20472;-92
2024/03/22 09:22:33;;;;;;;2.40;1.60;;;22.90;65.30;;;;;;5077117;28;20436;-91
2024/03/22 09:25:00;;;;;;;3.07;1.97;;;23.00;65.60;;;;;;5076698;28;20525;-93
2024/03/22 09:27:26;;;;;;;3.63;2.33;;;22.90;65.60;;;;;;5075934;28;20198;-92
2024/03/22 09:29:53;;;;;;;2.60;1.80;;;22.90;65.50;;;;;;5076102;28;20527;-93
2024/03/22 09:32:19;;;;;;;1.90;1.47;;;23.00;65.60;;;;;;5075919;28;20555;-91
2024/03/22 09:34:49;;;;;;;3.10;2.03;;;23.00;65.70;;;;;;5076676;28;20445;-93
2024/03/22 09:37:15;;;;;;;3.03;1.70;;;23.00;65.60;;;;;;5076408;28;20201;-92
2024/03/22 09:39:42;;;;;;;2.97;1.83;;;23.00;65.70;;;;;;5076282;28;20845;-92
2024/03/22 09:42:11;;;;;;;6.13;1.60;;;23.00;65.60;;;;;;5075535;28;20443;-91
2024/03/22 09:44:40;;;;;;;2.37;1.93;;;23.00;65.50;;;;;;5076242;28;20444;-92
2024/03/22 09:47:07;;;;;;;3.13;1.90;;;23.00;65.60;;;;;;5076456;28;20436;-91
2024/03/22 09:49:35;;;;;;;4.20;2.07;;;23.00;65.50;;;;;;5075893;28;20532;-91
2024/03/22 09:52:03;;;;;;;2.00;1.53;;;23.10;65.60;;;;;;5075725;28;20613;-91
2024/03/22 09:54:31;;;;;;;2.57;1.97;;;23.10;65.40;;;;;;5075707;28;20472;-92
2024/03/22 09:56:58;;;;;;;3.03;1.70;;;23.20;65.60;;;;;;5075995;28;20449;-92
2024/03/22 09:59:25;;;;;;;6.70;1.73;;;23.10;65.40;;;;;;5075604;28;20459;-94
2024/03/22 10:01:52;;;;;;;2.90;2.10;;;23.10;65.40;;;;;;5076220;28;20803;-92
2024/03/22 10:04:19;;;;;;;2.67;2.00;;;23.10;65.40;;;;;;5075716;28;20448;-92
2024/03/22 10:06:47;;;;;;;2.30;2.07;;;23.10;65.50;;;;;;5075681;28;20447;-92
2024/03/22 10:09:17;;;;;;;2.00;1.60;;;23.10;65.60;;;;;;5075878;28;20495;-92
2024/03/22 10:11:44;;;;;;;2.73;1.80;;;23.20;65.70;;;;;;5073499;28;20448;-84
2024/03/22 10:14:11;;;;;;;3.73;1.70;;;23.10;65.40;;;;;;5073657;28;20441;-84
2024/03/22 10:16:36;;;;;;;3.03;1.70;;;23.10;65.50;;;;;;5072600;28;20780;-84
2024/03/22 10:19:03;;;;;;;5.17;2.70;;;23.10;65.30;;;;;;5071165;28;20537;-84
2024/03/22 10:21:29;;;;;;;1.80;1.40;;;23.10;65.30;;;;;;5071450;28;20194;-84
2024/03/22 10:23:59;;;;;;;3.07;1.50;;;23.10;65.30;;;;;;5079272;28;20872;-84
2024/03/22 10:26:32;;;;;;;2.23;1.80;;;23.10;65.30;;;;;;5083093;28;20233;-84
2024/03/22 10:29:04;;;;;;;2.13;1.87;;;23.10;65.40;;;;;;5084571;28;20440;-84
2024/03/22 10:31:35;;;;;;;2.87;2.00;;;23.10;65.40;;;;;;5084260;28;20425;-84
2024/03/22 10:34:03;;;;;;;2.83;1.60;;;23.20;65.60;;;;;;5077359;28;20468;-83
2024/03/22 10:36:31;;;;;;;2.50;1.93;;;23.20;65.50;;;;;;5075037;28;20436;-84
2024/03/22 10:38:59;;;;;;;2.47;1.97;;;23.20;65.50;;;;;;5074531;28;21009;-83
2024/03/22 10:41:29;;;;;;;3.03;1.70;;;23.20;65.50;;;;;;5076106;28;20954;-82
2024/03/22 10:44:00;;;;;;;6.17;1.80;;;23.20;65.50;;;;;;5076807;28;20444;-83
2024/03/22 10:46:30;;;;;;;2.60;1.30;;;23.20;65.50;;;;;;5077171;28;20439;-82
2024/03/22 10:49:00;;;;;;;2.03;1.53;;;23.20;65.40;;;;;;5077554;28;20452;-84
2024/03/22 10:51:28;;;;;;;6.37;1.90;;;23.20;65.50;;;;;;5078831;28;20436;-86
2024/03/22 10:53:59;;;;;;;2.33;1.80;;;23.20;65.50;;;;;;5080785;28;20480;-84
2024/03/22 10:56:26;;;;;;;2.30;1.47;;;23.20;65.40;;;;;;5061696;28;20452;-89
2024/03/22 10:58:53;;;;;;;4.30;2.23;;;23.20;65.50;;;;;;5060372;28;20468;-83
2024/03/22 11:01:23;;;;;;;10.13;3.73;;;23.10;63.20;;;;;;5059884;28;20444;-89
2024/03/22 11:03:52;;;;;;;2.30;1.77;;;23.20;61.60;;;;;;5061425;28;20484;-84
2024/03/22 11:06:19;;;;;;;4.80;2.07;;;23.10;64.60;;;;;;5060307;28;20440;-83
2024/03/22 11:08:51;;;;;;;2.63;1.87;;;23.10;64.60;;;;;;5060206;28;20441;-83
2024/03/22 11:11:18;;;;;;;3.57;1.83;;;23.10;64.70;;;;;;5079116;28;20939;-85
2024/03/22 11:13:50;;;;;;;2.83;1.77;;;23.10;64.80;;;;;;5081435;28;20510;-88
2024/03/22 11:16:17;;;;;;;2.47;1.50;;;23.20;64.90;;;;;;5078846;28;20463;-83
2024/03/22 11:18:44;;;;;;;8.67;2.10;;;23.20;65.00;;;;;;5066975;28;20473;-85
2024/03/22 11:21:10;;;;;;;16.13;4.57;;;23.30;64.80;;;;;;5059582;28;20448;-83
2024/03/22 11:23:40;;;;;;;3.37;2.30;;;23.20;62.90;;;;;;5061291;28;20421;-88
2024/03/22 11:26:07;;;;;;;3.67;2.40;;;23.30;63.10;;;;;;5061367;28;20215;-85
2024/03/22 11:28:35;;;;;;;5.13;2.40;;;23.20;64.00;;;;;;5066290;28;20448;-82
2024/03/22 11:31:03;;;;;;;6.43;2.50;;;23.20;64.00;;;;;;5076231;28;20492;-84
2024/03/22 11:33:36;;;;;;;9.30;2.60;;;23.10;64.00;;;;;;5078539;28;20544;-83
2024/03/22 11:36:03;;;;;;;4.17;1.97;;;23.20;64.20;;;;;;5060310;28;20440;-84
2024/03/22 11:38:31;;;;;;;7.10;3.10;;;23.20;64.20;;;;;;5060490;28;20453;-82
2024/03/22 11:41:01;;;;;;;4.03;2.33;;;23.20;64.30;;;;;;5061682;28;20441;-84
2024/03/22 11:43:31;;;;;;;3.67;2.20;;;23.30;64.80;;;;;;5060221;28;20440;-85
2024/03/22 11:45:57;;;;;;;5.27;2.77;;;23.20;65.70;;;;;;5060276;28;20440;-84
2024/03/22 11:48:28;;;;;;;7.70;2.17;;;23.30;67.00;;;;;;5061122;28;20441;-84
2024/03/22 11:51:00;;;;;;;3.67;2.47;;;23.20;67.90;;;;;;5060400;28;20248;-82
2024/03/22 11:53:29;;;;;;;6.30;2.33;;;23.20;69.10;;;;;;5059375;28;20525;-84
2024/03/22 11:55:57;;;;;;;4.20;2.50;;;23.20;70.10;;;;;;5060472;28;20457;-84
2024/03/22 11:58:27;;;;;;;3.10;2.30;;;23.20;70.50;;;;;;5060062;28;20438;-84
2024/03/22 12:00:53;;;;;;;7.80;3.10;;;23.20;71.30;;;;;;5061120;28;20462;-84
2024/03/22 12:03:20;;;;;;;10.60;3.80;;;23.20;71.40;;;;;;5060242;28;20449;-82
2024/03/22 12:05:57;;;;;;;12.27;3.00;;;23.20;71.40;;;;;;5059804;28;20436;-83
2024/03/22 12:08:24;;;;;;;4.97;2.50;;;23.20;71.00;;;;;;5060455;28;20503;-84
2024/03/22 12:10:50;;;;;;;6.30;2.50;;;23.20;70.50;;;;;;5055950;28;20441;-84
2024/03/22 12:13:19;;;;;;;7.40;2.63;;;23.30;70.10;;;;;;5055520;28;20485;-83
2024/03/22 12:15:45;;;;;;;3.70;1.93;;;23.20;69.70;;;;;;5056233;28;20650;-85
2024/03/22 12:18:12;;;;;;;8.27;2.73;;;23.10;69.50;;;;;;5055573;28;20483;-84
2024/03/22 12:20:38;;;;;;;5.10;1.83;;;23.10;69.40;;;;;;5055967;28;20294;-84
2024/03/22 12:26:29;;;;;;;10.00;2.10;;;23.20;69.20;;;;;;5055798;28;20802;-85
2024/03/22 12:28:57;;;;;;;3.63;2.60;;;23.10;69.10;;;;;;5057502;28;20442;-84
2024/03/22 12:31:24;;;;;;;7.33;2.57;;;23.20;69.20;;;;;;5058193;28;20485;-84
2024/03/22 12:33:49;;;;;;;4.33;2.10;;;23.10;69.00;;;;;;5057342;28;20485;-81
2024/03/22 12:36:16;;;;;;;6.00;2.13;;;23.20;68.90;;;;;;5057122;28;20464;-85
2024/03/22 12:38:42;;;;;;;4.00;2.53;;;23.10;68.70;;;;;;5055520;28;20194;-86
2024/03/22 12:41:09;;;;;;;4.90;2.33;;;23.10;68.70;;;;;;5055203;28;20970;-84
2024/03/22 12:43:36;;;;;;;7.37;2.40;;;23.10;68.70;;;;;;5055503;28;20194;-85
2024/03/22 12:46:03;;;;;;;4.70;2.23;;;23.10;68.80;;;;;;5055361;28;20450;-83
2024/03/22 12:48:29;;;;;;;5.57;2.20;;;23.10;68.20;;;;;;5055483;28;20845;-83
2024/03/22 12:50:56;;;;;;;5.97;2.10;;;23.10;68.30;;;;;;5054984;28;20446;-83
2024/03/22 12:53:22;;;;;;;5.33;2.27;;;23.10;68.40;;;;;;5055166;28;20222;-83
2024/03/22 12:55:50;;;;;;;3.77;1.97;;;23.10;68.30;;;;;;5055502;28;20452;-84
2024/03/22 12:58:17;;;;;;;6.07;2.27;;;23.10;68.10;;;;;;5054626;28;20198;-83
2024/03/22 13:00:45;;;;;;;3.57;2.10;;;23.10;68.00;;;;;;5055015;28;20920;-83
2024/03/22 13:03:13;;;;;;;5.30;2.37;;;23.10;68.00;;;;;;5054856;28;20195;-83
2024/03/22 13:05:39;;;;;;;6.53;2.10;;;23.10;67.90;;;;;;5055212;28;20445;-85
2024/03/22 13:08:06;;;;;;;5.23;2.37;;;23.10;67.90;;;;;;5055016;28;20807;-84
2024/03/22 13:10:33;;;;;;;4.10;1.73;;;23.10;67.80;;;;;;5055100;28;20445;-84
2024/03/22 13:12:58;;;;;;;7.77;2.27;;;23.10;67.80;;;;;;5056625;28;20495;-84
2024/03/22 13:15:25;;;;;;;3.13;1.97;;;23.10;67.90;;;;;;5073800;28;20436;-84
2024/03/22 13:17:55;;;;;;;6.93;2.20;;;23.10;67.80;;;;;;5074092;28;20186;-85
2024/03/22 13:20:21;;;;;;;7.20;2.33;;;23.10;67.80;;;;;;5074954;28;20433;-85
2024/03/22 13:22:47;;;;;;;5.20;2.00;;;23.10;67.80;;;;;;5070946;28;20437;-84
2024/03/22 13:25:14;;;;;;;4.57;1.97;;;23.10;67.70;;;;;;5054286;28;20823;-85
2024/03/22 13:27:41;;;;;;;4.13;2.13;;;23.10;67.70;;;;;;5054276;28;20194;-84
2024/03/22 13:30:09;;;;;;;4.17;1.90;;;23.20;67.80;;;;;;5054633;28;20811;-87
2024/03/22 13:32:35;;;;;;;2.67;1.90;;;23.10;67.70;;;;;;5037144;28;20481;-84
2024/03/22 13:35:04;;;;;;;3.43;2.33;;;23.10;67.70;;;;;;5054709;28;20441;-84
2024/03/22 13:37:30;;;;;;;3.63;2.57;;;23.10;67.70;;;;;;5054722;28;20850;-83
2024/03/22 13:39:57;;;;;;;3.67;2.00;;;23.10;67.60;;;;;;5054292;28;20442;-85
2024/03/22 13:42:23;;;;;;;3.40;2.40;;;23.10;67.60;;;;;;5054222;28;20194;-84
2024/03/22 13:44:50;;;;;;;5.27;2.30;;;23.10;67.50;;;;;;5054486;28;20473;-83
2024/03/22 13:47:15;;;;;;;4.57;1.80;;;23.10;67.50;;;;;;5054079;28;20202;-86
2024/03/22 13:49:42;;;;;;;2.00;1.60;;;23.00;67.30;;;;;;5053659;28;20460;-84
2024/03/22 13:52:10;;;;;;;4.57;2.40;;;23.10;67.60;;;;;;5069369;28;20706;-84
2024/03/22 13:54:36;;;;;;;6.83;2.40;;;23.10;67.30;;;;;;5073454;28;20491;-84
2024/03/22 13:57:02;;;;;;;4.70;2.87;;;23.00;67.30;;;;;;5073247;28;20440;-85
2024/03/22 13:59:30;;;;;;;7.43;2.50;;;23.00;67.30;;;;;;5073730;28;20498;-84
2024/03/22 14:01:56;;;;;;;5.17;2.60;;;23.00;67.30;;;;;;5073786;28;20811;-85
2024/03/22 14:04:23;;;;;;;6.20;3.40;;;23.00;67.40;;;;;;5073475;28;20484;-85
2024/03/22 14:06:49;;;;;;;5.67;2.13;;;23.00;67.30;;;;;;5074091;28;20444;-85
2024/03/22 14:09:17;;;;;;;3.70;2.20;;;23.10;67.40;;;;;;5074023;28;20440;-84
2024/03/22 14:11:43;;;;;;;6.67;2.60;;;23.00;67.20;;;;;;5074012;28;20455;-86
2024/03/22 14:14:11;;;;;;;9.50;2.90;;;23.00;67.20;;;;;;5073625;28;20971;-84
2024/03/22 14:16:37;;;;;;;5.20;3.13;;;23.00;67.20;;;;;;5073188;28;20454;-83
2024/03/22 14:19:04;;;;;;;13.33;3.27;;;23.00;67.40;;;;;;5072988;28;21058;-84
2024/03/22 14:21:30;;;;;;;7.00;2.97;;;23.00;67.30;;;;;;5067882;28;20806;-82
2024/03/22 14:23:56;;;;;;;10.10;3.30;;;23.00;67.30;;;;;;5053587;28;20469;-83
2024/03/22 14:26:24;;;;;;;4.43;2.60;;;23.00;67.40;;;;;;5070118;28;20572;-84
2024/03/22 14:28:52;;;;;;;3.57;2.60;;;23.00;67.20;;;;;;5070145;28;20441;-85
2024/03/22 14:31:19;;;;;;;8.73;3.63;;;23.00;67.30;;;;;;5073598;28;20523;-84
2024/03/22 14:33:46;;;;;;;5.43;3.00;;;23.00;67.20;;;;;;5072700;28;20484;-84